Terminal Aerodrome Forecast
Issued by NWS Charleston, WV

Current Version | Previous Version | Graphics & Text | Print | Product List | Glossary On
Versions: 1 2 3 4 5 6 7 8 9 10 11 12 13 14 15 16 17 18 19 20 21 22
000
FTUS41 KRLX 281725
TAFPKB
TAF
KPKB 281725Z 2818/2918 VRB04KT P6SM SCT040
     FM290400 00000KT 3SM BR FEW050
     FM290700 00000KT 1/4SM FG VV001
     FM291230 00000KT 1SM BR BKN002
     FM291400 VRB04KT P6SM SCT040=

USA.gov is the U.S. government's official web portal to all federal, state and local government web resources and services.